Time;durP1;ratioP1;P1;durP2;ratioP2;P2;SDS_P1;SDS_P2;PMS_P1;PMS_P2;Temp;Humidity;BMP_temperature;BMP_pressure;BME280_temperature;BME280_humidity;BME280_pressure;Samples;Min_cycle;Max_cycle;Signal;HPM_P1;HPM_P2
2021/12/31 00:02:10;;;;;;;53.65;11.75;;;11.60;1.00;;;;;;6126317;23;20018;-91
2021/12/31 00:04:35;;;;;;;40.75;11.85;;;11.90;1.00;;;;;;6101288;23;20080;-91
2021/12/31 00:07:01;;;;;;;77.43;11.77;;;11.60;1.00;;;;;;6100146;23;20345;-91
2021/12/31 00:09:27;;;;;;;58.75;12.00;;;11.60;1.00;;;;;;6126433;23;20089;-91
2021/12/31 00:11:53;;;;;;;28.13;11.27;;;11.40;1.00;;;;;;6100896;23;20032;-91
2021/12/31 00:14:20;;;;;;;44.88;11.13;;;11.50;1.00;;;;;;6126812;23;20472;-91
2021/12/31 00:16:46;;;;;;;33.67;10.43;;;11.80;1.00;;;;;;6101058;23;20100;-91
2021/12/31 00:19:13;;;;;;;38.55;10.68;;;11.30;1.00;;;;;;6126268;23;20057;-90
2021/12/31 00:21:41;;;;;;;21.58;9.68;;;11.20;1.00;;;;;;6126518;23;20009;-91
2021/12/31 00:24:07;;;;;;;19.55;9.25;;;11.30;1.00;;;;;;6100710;23;20010;-91
2021/12/31 00:26:32;;;;;;;19.20;8.95;;;11.20;1.00;;;;;;6127141;23;20400;-91
2021/12/31 00:28:58;;;;;;;13.35;8.70;;;11.20;1.00;;;;;;6100109;23;20108;-91
2021/12/31 00:31:24;;;;;;;13.23;8.10;;;11.70;1.00;;;;;;6100491;23;20006;-91
2021/12/31 00:33:49;;;;;;;18.95;9.07;;;11.00;1.00;;;;;;6100839;23;20009;-91
2021/12/31 00:36:15;;;;;;;13.30;8.48;;;11.10;1.00;;;;;;6100548;23;20032;-90
2021/12/31 00:38:41;;;;;;;17.00;8.63;;;11.10;1.00;;;;;;6126471;23;20053;-91
2021/12/31 00:41:06;;;;;;;24.30;8.82;;;10.90;1.00;;;;;;6100424;23;20467;-91
2021/12/31 00:43:32;;;;;;;18.08;8.32;;;10.80;1.00;;;;;;6126617;23;20010;-90
2021/12/31 00:45:58;;;;;;;14.20;7.90;;;10.90;1.00;;;;;;6099684;23;20057;-91
2021/12/31 00:48:23;;;;;;;23.15;8.57;;;10.90;1.00;;;;;;6127244;23;20397;-91
2021/12/31 00:50:49;;;;;;;22.38;8.45;;;10.70;1.00;;;;;;6100055;23;20009;-92
2021/12/31 00:53:15;;;;;;;24.38;9.02;;;10.80;1.00;;;;;;6126176;23;20425;-91
2021/12/31 00:55:41;;;;;;;27.55;9.00;;;10.90;1.00;;;;;;6126742;23;20005;-91
2021/12/31 00:58:07;;;;;;;23.52;9.85;;;10.90;1.00;;;;;;6125733;23;19997;-91
2021/12/31 01:00:33;;;;;;;19.52;9.15;;;11.00;1.00;;;;;;6126495;23;20077;-91
2021/12/31 01:02:59;;;;;;;20.38;9.00;;;11.00;1.00;;;;;;6100164;23;20013;-91
2021/12/31 01:05:26;;;;;;;25.10;9.73;;;10.90;1.00;;;;;;6125478;23;20017;-91
2021/12/31 01:07:52;;;;;;;16.23;9.65;;;11.00;1.00;;;;;;6126788;23;20030;-91
2021/12/31 01:10:19;;;;;;;17.40;9.15;;;10.90;1.00;;;;;;6099930;23;20141;-91
2021/12/31 01:12:45;;;;;;;17.08;8.45;;;11.00;1.00;;;;;;6125833;23;20032;-91
2021/12/31 01:15:19;;;;;;;18.15;8.25;;;10.90;1.00;;;;;;6100279;23;20022;-91
2021/12/31 01:20:21;;;;;;;21.10;8.63;;;10.70;1.00;;;;;;6125719;23;20072;-91
2021/12/31 01:22:47;;;;;;;26.77;9.68;;;10.60;1.00;;;;;;6125395;23;20013;-91
2021/12/31 01:25:14;;;;;;;16.67;9.05;;;10.60;1.00;;;;;;6100427;23;20002;-91
2021/12/31 01:27:40;;;;;;;27.17;9.52;;;10.50;1.00;;;;;;6126642;23;20014;-92
2021/12/31 01:30:13;;;;;;;16.95;10.15;;;10.40;1.00;;;;;;6100252;23;20006;-91
2021/12/31 01:32:43;;;;;;;36.30;9.30;;;10.50;1.00;;;;;;6100446;23;20073;-91
2021/12/31 01:35:09;;;;;;;35.70;9.80;;;10.50;1.00;;;;;;6126075;23;20001;-91
2021/12/31 01:37:35;;;;;;;26.48;9.63;;;10.60;1.00;;;;;;6126104;23;20123;-91
2021/12/31 01:40:00;;;;;;;27.60;10.98;;;10.60;1.00;;;;;;6100279;23;20006;-90
2021/12/31 01:42:32;;;;;;;28.10;11.20;;;10.70;1.00;;;;;;6125971;23;20145;-91
2021/12/31 01:45:09;;;;;;;21.15;10.77;;;10.60;1.00;;;;;;6100501;23;20437;-90
2021/12/31 01:50:19;;;;;;;26.58;11.68;;;10.80;1.00;;;;;;6124809;23;20016;-91
2021/12/31 01:52:44;;;;;;;24.52;12.85;;;10.80;1.00;;;;;;6100043;23;20353;-91
2021/12/31 01:55:13;;;;;;;31.52;13.32;;;10.90;1.00;;;;;;6099826;23;20022;-91
2021/12/31 01:57:42;;;;;;;23.98;12.75;;;11.00;1.00;;;;;;6100909;23;20036;-92
2021/12/31 02:00:10;;;;;;;23.50;12.38;;;11.00;1.00;;;;;;6125833;23;20002;-91
2021/12/31 02:02:36;;;;;;;29.60;13.00;;;11.00;1.00;;;;;;6126226;23;20014;-91
2021/12/31 02:05:04;;;;;;;30.23;13.15;;;11.00;1.00;;;;;;6099359;23;20006;-92
2021/12/31 02:07:30;;;;;;;22.63;12.73;;;11.10;1.00;;;;;;6100429;23;20049;-91
2021/12/31 02:09:56;;;;;;;21.13;12.15;;;11.10;1.00;;;;;;6099979;23;20028;-91
2021/12/31 02:12:22;;;;;;;19.88;11.73;;;10.90;1.00;;;;;;6100203;23;20508;-91
2021/12/31 02:14:51;;;;;;;21.85;12.20;;;10.80;1.00;;;;;;6125943;23;20026;-91
2021/12/31 02:17:18;;;;;;;20.23;12.38;;;10.70;1.00;;;;;;6125611;23;20076;-91
2021/12/31 02:20:02;;;;;;;23.60;12.32;;;10.60;1.00;;;;;;6125143;23;20024;-91
2021/12/31 02:22:28;;;;;;;20.40;11.75;;;10.60;1.00;;;;;;6099313;23;20468;-91
2021/12/31 02:24:55;;;;;;;20.00;12.27;;;10.50;1.00;;;;;;6126010;23;20346;-91
2021/12/31 02:27:23;;;;;;;17.95;11.35;;;10.40;1.00;;;;;;6126496;23;20033;-91
2021/12/31 02:29:49;;;;;;;18.00;11.45;;;10.20;1.00;;;;;;6125387;23;20336;-91
2021/12/31 02:32:15;;;;;;;17.05;11.43;;;10.20;1.00;;;;;;6099354;23;20041;-91
2021/12/31 02:34:41;;;;;;;17.15;11.15;;;10.10;1.00;;;;;;6126015;23;20046;-91
2021/12/31 02:37:07;;;;;;;15.07;10.43;;;10.20;1.00;;;;;;6099227;23;20009;-91
2021/12/31 02:39:34;;;;;;;16.83;10.95;;;9.90;1.00;;;;;;6125572;23;20028;-91
2021/12/31 02:42:00;;;;;;;16.23;10.85;;;9.80;1.00;;;;;;6125736;23;20014;-91
2021/12/31 02:44:26;;;;;;;13.40;9.30;;;10.20;1.00;;;;;;6126410;23;20013;-91
2021/12/31 02:46:51;;;;;;;13.63;9.65;;;9.90;1.00;;;;;;6125172;23;20061;-91
2021/12/31 02:49:23;;;;;;;14.13;9.25;;;9.60;1.00;;;;;;6125926;23;20314;-91
2021/12/31 02:51:48;;;;;;;11.85;8.95;;;9.90;1.00;;;;;;6124902;23;20061;-91
2021/12/31 02:54:15;;;;;;;12.45;9.23;;;9.60;1.00;;;;;;6100688;23;20005;-92
2021/12/31 02:56:41;;;;;;;14.52;9.43;;;9.90;1.00;;;;;;6126338;23;20069;-91
2021/12/31 02:59:09;;;;;;;14.02;9.43;;;9.50;1.00;;;;;;6099645;23;20005;-92
2021/12/31 03:01:35;;;;;;;17.58;9.57;;;9.70;1.00;;;;;;6126545;23;20057;-91
2021/12/31 03:04:02;;;;;;;12.32;8.85;;;9.90;1.00;;;;;;6127279;23;20025;-91
2021/12/31 03:06:28;;;;;;;15.07;9.88;;;10.00;1.00;;;;;;6126716;23;20336;-91
2021/12/31 03:08:55;;;;;;;11.20;8.60;;;9.30;1.00;;;;;;6126934;23;20017;-92
2021/12/31 03:11:21;;;;;;;13.95;9.82;;;9.30;1.00;;;;;;6127897;23;20049;-92
2021/12/31 03:13:53;;;;;;;12.35;9.40;;;9.30;1.00;;;;;;6127155;23;20049;-92
2021/12/31 03:16:23;;;;;;;11.25;8.95;;;9.40;1.00;;;;;;6127001;23;20445;-92
2021/12/31 03:18:50;;;;;;;12.30;9.07;;;9.80;1.00;;;;;;6102658;23;20437;-92
2021/12/31 03:21:22;;;;;;;15.38;10.68;;;9.30;1.00;;;;;;6101005;23;20437;-92
2021/12/31 03:23:50;;;;;;;12.70;9.77;;;9.30;1.00;;;;;;6127302;23;20460;-92
2021/12/31 03:26:16;;;;;;;11.88;9.27;;;9.30;1.00;;;;;;6115316;23;20425;-91
2021/12/31 03:28:42;;;;;;;13.27;9.18;;;9.50;1.00;;;;;;6127440;23;20001;-92
2021/12/31 03:31:08;;;;;;;15.20;9.65;;;9.20;1.00;;;;;;6101812;23;20437;-91
2021/12/31 03:33:33;;;;;;;14.38;10.02;;;9.20;1.00;;;;;;6101618;23;20001;-92
2021/12/31 03:35:59;;;;;;;11.05;9.30;;;9.20;1.00;;;;;;6100991;23;20005;-92
2021/12/31 03:38:25;;;;;;;12.70;9.98;;;9.20;1.00;;;;;;6101181;23;20009;-91
2021/12/31 03:40:50;;;;;;;11.85;9.55;;;9.20;1.00;;;;;;6101864;23;20016;-92
2021/12/31 03:43:16;;;;;;;13.65;9.52;;;9.60;1.00;;;;;;6100606;23;20018;-91
2021/12/31 03:45:42;;;;;;;12.70;9.68;;;9.10;1.00;;;;;;6102012;23;20081;-91
2021/12/31 03:48:08;;;;;;;12.20;9.57;;;9.10;1.00;;;;;;6101838;23;20010;-91
2021/12/31 03:50:33;;;;;;;13.35;10.00;;;9.10;1.00;;;;;;6126745;23;20543;-92
2021/12/31 03:52:59;;;;;;;12.40;9.85;;;9.30;1.00;;;;;;6126974;23;20016;-92
2021/12/31 03:55:25;;;;;;;12.63;10.00;;;9.20;1.00;;;;;;6127084;23;20014;-91
2021/12/31 03:57:50;;;;;;;12.65;10.52;;;9.10;1.00;;;;;;6101006;23;20089;-92
2021/12/31 04:00:16;;;;;;;14.98;10.25;;;9.20;1.00;;;;;;6101939;23;20009;-91
2021/12/31 04:02:42;;;;;;;16.00;10.80;;;9.00;1.00;;;;;;6127061;23;20010;-92
2021/12/31 04:05:08;;;;;;;13.93;9.93;;;9.20;1.00;;;;;;6100633;23;20030;-92
2021/12/31 04:07:34;;;;;;;11.85;9.43;;;8.90;1.00;;;;;;6127226;23;20058;-91
2021/12/31 04:10:00;;;;;;;11.63;9.05;;;8.80;1.00;;;;;;6100972;23;20040;-91
2021/12/31 04:12:25;;;;;;;12.50;8.38;;;8.70;1.00;;;;;;6127276;23;20106;-92
2021/12/31 04:14:51;;;;;;;11.75;7.97;;;9.30;1.00;;;;;;6126971;23;20018;-92
2021/12/31 04:17:17;;;;;;;9.48;8.02;;;9.20;1.00;;;;;;6126698;23;20033;-92
2021/12/31 04:19:43;;;;;;;11.13;8.32;;;9.00;1.00;;;;;;6100963;23;20028;-91
2021/12/31 04:22:12;;;;;;;11.70;8.05;;;9.00;1.00;;;;;;6127468;23;20018;-93
2021/12/31 04:27:10;;;;;;;12.60;8.88;;;8.60;1.00;;;;;;6127433;23;20006;-91
2021/12/31 04:29:36;;;;;;;12.57;9.23;;;8.60;1.00;;;;;;6101281;23;20013;-92
2021/12/31 04:32:02;;;;;;;13.50;8.82;;;9.10;1.00;;;;;;6101013;23;20433;-92
2021/12/31 04:34:28;;;;;;;10.95;8.05;;;8.60;1.00;;;;;;6125476;23;20453;-92
2021/12/31 04:36:54;;;;;;;10.35;8.80;;;9.00;1.00;;;;;;6126205;23;19998;-92
2021/12/31 04:39:20;;;;;;;11.23;8.73;;;8.70;1.00;;;;;;6101294;23;20025;-91
2021/12/31 04:41:45;;;;;;;10.65;8.68;;;8.60;1.00;;;;;;6100112;23;20020;-92
2021/12/31 04:44:11;;;;;;;14.55;8.70;;;8.90;1.00;;;;;;6101212;23;20010;-92
2021/12/31 04:46:37;;;;;;;10.73;7.88;;;8.60;1.00;;;;;;6101710;23;20013;-92
2021/12/31 04:49:03;;;;;;;12.77;8.15;;;8.70;1.00;;;;;;6127054;23;20036;-92
2021/12/31 04:51:29;;;;;;;12.15;8.23;;;8.70;1.00;;;;;;6126925;23;20431;-92
2021/12/31 04:53:54;;;;;;;11.68;7.97;;;9.10;1.00;;;;;;6127020;23;20002;-91
2021/12/31 04:56:20;;;;;;;10.00;7.22;;;8.90;1.00;;;;;;6125615;23;20437;-92
2021/12/31 04:58:46;;;;;;;11.02;7.03;;;8.60;1.00;;;;;;6126785;23;19998;-92
2021/12/31 05:01:11;;;;;;;9.73;7.35;;;8.50;1.00;;;;;;6101049;23;20497;-92
2021/12/31 05:03:37;;;;;;;9.70;6.60;;;8.50;1.00;;;;;;6127316;23;20014;-92
2021/12/31 05:06:03;;;;;;;9.57;7.07;;;8.40;1.00;;;;;;6099870;23;20370;-92
2021/12/31 05:08:28;;;;;;;10.07;7.75;;;8.40;1.00;;;;;;6126150;23;20455;-91
2021/12/31 05:10:54;;;;;;;10.68;7.60;;;8.30;1.00;;;;;;6100774;23;20092;-92
2021/12/31 05:13:20;;;;;;;11.32;8.10;;;8.80;1.00;;;;;;6126750;23;20089;-92
2021/12/31 05:15:48;;;;;;;12.70;8.10;;;8.20;1.00;;;;;;6100619;23;20120;-92
2021/12/31 05:18:14;;;;;;;10.07;7.30;;;8.10;1.00;;;;;;6126091;23;20009;-92
2021/12/31 05:20:41;;;;;;;11.57;7.72;;;8.60;1.00;;;;;;6126034;23;20006;-92
2021/12/31 05:23:07;;;;;;;9.65;7.35;;;8.10;1.00;;;;;;6100568;23;20018;-92
2021/12/31 05:25:33;;;;;;;7.38;6.45;;;8.40;1.00;;;;;;6125552;23;20077;-92
2021/12/31 05:27:58;;;;;;;8.15;6.75;;;8.20;1.00;;;;;;6100647;23;20024;-92
2021/12/31 05:30:27;;;;;;;9.95;7.47;;;8.20;1.00;;;;;;6126524;23;19998;-92
2021/12/31 05:32:53;;;;;;;10.57;6.93;;;8.20;1.00;;;;;;6126029;23;20006;-92
2021/12/31 05:35:19;;;;;;;9.82;7.00;;;8.10;1.00;;;;;;6100127;23;20002;-91
2021/12/31 05:37:45;;;;;;;9.63;7.43;;;8.20;1.00;;;;;;6126902;23;20010;-92
2021/12/31 05:40:10;;;;;;;10.10;6.78;;;8.50;1.00;;;;;;6100081;23;20032;-92
2021/12/31 05:42:37;;;;;;;8.73;6.70;;;8.20;1.00;;;;;;6126472;23;20040;-92
2021/12/31 05:45:03;;;;;;;10.02;6.68;;;8.80;1.00;;;;;;6126388;23;20089;-91
2021/12/31 05:47:29;;;;;;;10.07;7.20;;;8.20;1.00;;;;;;6100902;23;20006;-92
2021/12/31 05:49:55;;;;;;;9.40;7.28;;;8.20;1.00;;;;;;6099422;23;20006;-92
2021/12/31 05:52:21;;;;;;;11.20;7.80;;;8.20;1.00;;;;;;6100152;23;20349;-92
2021/12/31 05:54:47;;;;;;;11.93;7.55;;;8.10;1.00;;;;;;6125586;23;20061;-92
2021/12/31 05:57:12;;;;;;;8.48;6.40;;;8.10;1.00;;;;;;6100261;23;20002;-92
2021/12/31 05:59:38;;;;;;;11.00;7.15;;;8.40;1.00;;;;;;6126961;23;20013;-92
2021/12/31 06:02:04;;;;;;;9.27;7.18;;;8.10;1.00;;;;;;6125738;23;20024;-92
2021/12/31 06:04:29;;;;;;;8.45;6.55;;;8.20;1.00;;;;;;6099500;23;20430;-92
2021/12/31 06:06:55;;;;;;;10.18;7.07;;;8.20;1.00;;;;;;6099900;23;20006;-92
2021/12/31 06:09:21;;;;;;;9.77;7.50;;;8.20;1.00;;;;;;6125560;23;20002;-92
2021/12/31 06:11:47;;;;;;;10.18;6.68;;;8.20;1.00;;;;;;6126585;23;20376;-92
2021/12/31 06:14:13;;;;;;;10.13;6.95;;;8.60;1.00;;;;;;6100135;23;20018;-92
2021/12/31 06:16:45;;;;;;;11.25;6.38;;;8.20;1.00;;;;;;6100366;23;20032;-91
2021/12/31 06:19:12;;;;;;;11.52;7.20;;;8.80;1.00;;;;;;6125795;23;20017;-92
2021/12/31 06:21:40;;;;;;;8.55;7.05;;;8.20;1.00;;;;;;6125838;23;20013;-92
2021/12/31 06:24:06;;;;;;;9.65;7.22;;;8.40;1.00;;;;;;6099811;23;20471;-92
2021/12/31 06:26:32;;;;;;;10.40;7.15;;;8.30;1.00;;;;;;6100459;23;20002;-91
2021/12/31 06:28:59;;;;;;;9.90;7.13;;;8.30;1.00;;;;;;6125624;23;20017;-92
2021/12/31 06:31:25;;;;;;;8.88;7.50;;;8.70;1.00;;;;;;6100355;23;20499;-92
2021/12/31 06:33:50;;;;;;;10.60;6.95;;;8.30;1.00;;;;;;6126351;23;20013;-92
2021/12/31 06:36:17;;;;;;;12.73;7.53;;;8.30;1.00;;;;;;6126255;23;20006;-92
2021/12/31 06:38:43;;;;;;;8.98;7.03;;;8.30;1.00;;;;;;6099629;23;20085;-92
2021/12/31 06:41:09;;;;;;;9.75;7.22;;;8.70;1.00;;;;;;6125787;23;20127;-91
2021/12/31 06:43:35;;;;;;;8.55;7.38;;;8.30;1.00;;;;;;6100794;23;20013;-92
2021/12/31 06:46:01;;;;;;;9.50;7.32;;;8.30;1.00;;;;;;6099788;23;20501;-92
2021/12/31 06:48:26;;;;;;;11.30;7.30;;;8.20;1.00;;;;;;6125671;23;20119;-92
2021/12/31 06:50:52;;;;;;;11.38;7.40;;;8.20;1.00;;;;;;6099135;23;20006;-92
2021/12/31 06:53:18;;;;;;;8.85;6.75;;;8.20;1.00;;;;;;6099783;23;20002;-91
2021/12/31 06:55:43;;;;;;;10.23;7.10;;;8.20;1.00;;;;;;6099914;23;20011;-92
2021/12/31 06:58:09;;;;;;;9.00;6.40;;;8.20;1.00;;;;;;6125958;23;20341;-91
2021/12/31 07:00:35;;;;;;;7.80;6.60;;;8.20;1.00;;;;;;6100007;23;20013;-91
2021/12/31 07:03:06;;;;;;;8.63;6.43;;;8.20;1.00;;;;;;6125235;23;20024;-92
2021/12/31 07:05:32;;;;;;;8.93;6.03;;;8.10;1.00;;;;;;6099809;23;20009;-92
2021/12/31 07:07:57;;;;;;;8.70;6.70;;;8.60;1.00;;;;;;6125572;23;20002;-91
2021/12/31 07:10:23;;;;;;;9.40;6.78;;;8.20;1.00;;;;;;6125824;23;20029;-92
2021/12/31 07:12:48;;;;;;;8.27;6.25;;;8.50;1.00;;;;;;6125817;23;20452;-91
2021/12/31 07:15:14;;;;;;;8.80;6.03;;;8.80;1.00;;;;;;6100095;23;20002;-91
2021/12/31 07:17:39;;;;;;;8.98;6.10;;;8.30;1.00;;;;;;6100133;23;20033;-92
2021/12/31 07:20:06;;;;;;;8.52;6.15;;;8.20;1.00;;;;;;6098807;23;20006;-92
2021/12/31 07:22:34;;;;;;;7.80;6.15;;;8.30;1.00;;;;;;6125014;23;20101;-92
2021/12/31 07:25:00;;;;;;;7.03;5.65;;;8.30;1.00;;;;;;6126224;23;20037;-92
2021/12/31 07:27:26;;;;;;;8.07;6.35;;;8.90;1.00;;;;;;6100037;23;20341;-92
2021/12/31 07:29:51;;;;;;;8.57;6.10;;;8.80;1.00;;;;;;6125800;23;20446;-92
2021/12/31 07:32:17;;;;;;;7.93;6.00;;;8.80;1.00;;;;;;6099799;23;20050;-92
2021/12/31 07:34:42;;;;;;;8.70;6.43;;;8.40;1.00;;;;;;6099654;23;20016;-91
2021/12/31 07:37:08;;;;;;;12.30;6.53;;;8.40;1.00;;;;;;6125055;23;20006;-92
2021/12/31 07:39:35;;;;;;;8.32;5.88;;;8.80;1.00;;;;;;6125694;23;20460;-92
2021/12/31 07:42:01;;;;;;;7.78;6.35;;;10.30;1.00;;;;;;6125993;23;20014;-92
2021/12/31 07:44:26;;;;;;;8.40;6.45;;;11.20;1.00;;;;;;6125794;23;20081;-92
2021/12/31 07:46:52;;;;;;;7.13;5.88;;;11.00;1.00;;;;;;6125859;23;20450;-92
2021/12/31 07:49:18;;;;;;;7.32;5.60;;;10.80;1.00;;;;;;6100103;23;20005;-92
2021/12/31 07:51:43;;;;;;;7.82;5.90;;;10.60;1.00;;;;;;6101080;23;20029;-92
2021/12/31 07:54:10;;;;;;;7.22;5.72;;;10.70;1.00;;;;;;6126848;23;20010;-91
2021/12/31 07:56:35;;;;;;;7.95;5.22;;;11.30;1.00;;;;;;6100808;23;20005;-91
2021/12/31 07:59:01;;;;;;;5.90;5.13;;;12.40;1.00;;;;;;6125018;23;20013;-91
2021/12/31 08:01:27;;;;;;;6.65;5.05;;;13.30;1.00;;;;;;6099378;23;20013;-91
2021/12/31 08:03:52;;;;;;;7.47;5.30;;;12.90;1.00;;;;;;6127281;23;20010;-91
2021/12/31 08:06:18;;;;;;;6.45;5.22;;;12.60;1.00;;;;;;6127744;23;20012;-93
2021/12/31 08:08:43;;;;;;;6.50;5.30;;;12.30;1.00;;;;;;6101252;23;20006;-92
2021/12/31 08:11:09;;;;;;;6.93;5.00;;;12.60;1.00;;;;;;6128002;23;20437;-92
2021/12/31 08:13:35;;;;;;;5.72;4.88;;;13.70;1.00;;;;;;6126771;23;20014;-94
2021/12/31 08:16:00;;;;;;;8.32;5.35;;;14.30;1.00;;;;;;6101841;23;20006;-91
2021/12/31 08:18:26;;;;;;;5.07;4.43;;;15.30;1.00;;;;;;6100520;23;20344;-91
2021/12/31 08:20:51;;;;;;;5.95;4.60;;;16.10;1.00;;;;;;6127835;23;20033;-90
2021/12/31 08:23:18;;;;;;;5.70;4.40;;;16.10;1.00;;;;;;6100040;23;20437;-92
2021/12/31 08:25:43;;;;;;;4.95;4.45;;;16.40;1.00;;;;;;6126947;23;20029;-84
2021/12/31 08:28:10;;;;;;;5.53;4.60;;;17.20;1.00;;;;;;6098735;23;20339;-83
2021/12/31 08:30:35;;;;;;;5.97;4.35;;;18.10;1.00;;;;;;6126240;23;20115;-81
2021/12/31 08:33:01;;;;;;;6.18;4.25;;;18.00;1.00;;;;;;6123676;23;20434;-82
2021/12/31 08:35:27;;;;;;;4.97;4.47;;;17.80;1.00;;;;;;6124515;23;20445;-82
2021/12/31 08:37:53;;;;;;;4.97;4.47;;;20.50;1.00;;;;;;6124884;23;19998;-81
2021/12/31 08:40:20;;;;;;;5.72;4.20;;;20.20;1.00;;;;;;6125389;23;20397;-81
2021/12/31 08:42:46;;;;;;;7.50;5.43;;;20.90;1.00;;;;;;6123306;23;20022;-73
2021/12/31 08:45:11;;;;;;;6.97;4.28;;;23.00;1.00;;;;;;6124877;23;20053;-89
2021/12/31 08:47:37;;;;;;;5.75;4.60;;;24.90;1.00;;;;;;6125025;23;20010;-92
2021/12/31 08:50:03;;;;;;;7.22;4.57;;;25.60;1.00;;;;;;6124971;23;20072;-91
2021/12/31 08:52:29;;;;;;;6.50;4.65;;;27.10;1.00;;;;;;6126113;23;20006;-89
2021/12/31 08:54:54;;;;;;;4.82;4.20;;;27.50;1.00;;;;;;6099027;23;20341;-92
2021/12/31 08:57:20;;;;;;;5.65;4.68;;;27.50;1.00;;;;;;6126393;23;20005;-91
2021/12/31 08:59:45;;;;;;;4.90;4.50;;;28.60;1.00;;;;;;6126114;23;19998;-87
2021/12/31 09:02:12;;;;;;;4.88;4.40;;;28.70;1.00;;;;;;6125200;23;20006;-92
2021/12/31 09:04:38;;;;;;;5.13;4.30;;;29.50;1.00;;;;;;6124942;23;20437;-88
2021/12/31 09:07:03;;;;;;;5.22;4.13;;;28.80;1.00;;;;;;6099232;23;20006;-89
2021/12/31 09:09:29;;;;;;;4.53;3.97;;;29.60;1.00;;;;;;6125412;23;20005;-90
2021/12/31 09:11:56;;;;;;;4.40;4.00;;;30.40;1.00;;;;;;6097596;23;20326;-90
2021/12/31 09:14:22;;;;;;;5.65;3.90;;;30.80;1.00;;;;;;6098241;23;20516;-89
2021/12/31 09:16:49;;;;;;;5.55;3.58;;;30.70;1.00;;;;;;6124632;23;20348;-89
2021/12/31 09:19:15;;;;;;;5.28;3.75;;;27.90;1.00;;;;;;6098826;23;20452;-89
2021/12/31 09:21:41;;;;;;;6.45;4.47;;;28.50;1.00;;;;;;6125578;23;20037;-89
2021/12/31 09:24:07;;;;;;;7.80;3.97;;;28.40;1.00;;;;;;6124411;23;20006;-90
2021/12/31 09:26:33;;;;;;;4.30;3.90;;;28.30;1.00;;;;;;6123045;23;20053;-91
2021/12/31 09:28:58;;;;;;;5.28;3.85;;;30.00;1.00;;;;;;6125533;23;20033;-92
2021/12/31 09:31:24;;;;;;;4.80;4.40;;;31.00;1.00;;;;;;6098616;23;20472;-91
2021/12/31 09:33:50;;;;;;;6.88;4.00;;;31.40;1.00;;;;;;6125692;23;20006;-92
2021/12/31 09:36:16;;;;;;;3.95;3.55;;;31.70;99.90;;;;;;6125196;23;20033;-92
2021/12/31 09:38:42;;;;;;;5.30;3.67;;;30.80;99.90;;;;;;6125175;23;20048;-92
2021/12/31 09:41:07;;;;;;;4.55;3.58;;;30.70;1.00;;;;;;6125155;23;20004;-92
2021/12/31 09:43:33;;;;;;;4.38;3.97;;;31.80;99.90;;;;;;6124469;23;20014;-92
2021/12/31 09:45:59;;;;;;;5.70;4.18;;;32.80;99.90;;;;;;6124134;23;20344;-92
2021/12/31 09:48:25;;;;;;;6.43;4.32;;;32.70;99.90;;;;;;6125924;23;20006;-92
2021/12/31 09:50:54;;;;;;;5.40;3.92;;;31.50;1.00;;;;;;6099489;23;20015;-91
2021/12/31 09:53:20;;;;;;;4.25;3.85;;;30.00;1.00;;;;;;6124453;23;20073;-90
2021/12/31 09:55:52;;;;;;;4.25;3.80;;;29.30;1.00;;;;;;6124766;23;20460;-91
2021/12/31 09:58:19;;;;;;;4.07;3.50;;;30.10;1.00;;;;;;6123846;23;20012;-91
2021/12/31 10:00:47;;;;;;;5.38;4.10;;;29.40;1.00;;;;;;6124554;23;20016;-91
2021/12/31 10:03:17;;;;;;;4.05;3.67;;;31.20;99.90;;;;;;6125295;23;20034;-90
2021/12/31 10:05:45;;;;;;;3.92;3.50;;;32.10;99.90;;;;;;6124823;23;20137;-91
2021/12/31 10:08:29;;;;;;;3.80;3.38;;;32.30;99.90;;;;;;6123950;23;20029;-90
2021/12/31 10:11:14;;;;;;;3.90;3.53;;;32.90;99.90;;;;;;6124768;23;20009;-91
2021/12/31 10:13:45;;;;;;;5.43;3.85;;;33.30;99.90;;;;;;6124368;23;20592;-91
2021/12/31 10:16:36;;;;;;;3.90;3.55;;;33.10;99.90;;;;;;6098937;23;20010;-91
2021/12/31 10:19:12;;;;;;;4.30;3.90;;;33.80;99.90;;;;;;6123777;23;20174;-91
2021/12/31 10:21:50;;;;;;;4.43;4.03;;;34.80;99.90;;;;;;6124478;23;20006;-91
2021/12/31 10:24:23;;;;;;;4.10;3.70;;;34.50;99.90;;;;;;6125162;23;20025;-91
2021/12/31 10:27:17;;;;;;;4.82;4.43;;;34.50;99.90;;;;;;6124014;23;20006;-91
2021/12/31 10:29:54;;;;;;;4.82;4.00;;;32.40;99.90;;;;;;6097686;23;20484;-91
2021/12/31 10:32:23;;;;;;;4.07;3.67;;;34.50;99.90;;;;;;6124591;23;20018;-90
2021/12/31 10:34:49;;;;;;;4.05;3.30;;;34.30;99.90;;;;;;6124535;23;20433;-91
2021/12/31 10:37:22;;;;;;;2.88;2.67;;;34.70;99.90;;;;;;6124089;23;20010;-92
2021/12/31 10:39:58;;;;;;;6.18;2.88;;;32.60;99.90;;;;;;6123784;23;20069;-92
2021/12/31 10:42:30;;;;;;;5.82;3.15;;;32.40;99.90;;;;;;6124461;23;20010;-91
2021/12/31 10:44:57;;;;;;;3.20;2.83;;;34.70;99.90;;;;;;6098783;23;20013;-91
2021/12/31 10:47:35;;;;;;;4.85;3.30;;;36.30;99.90;;;;;;6124457;23;20461;-91
2021/12/31 10:50:03;;;;;;;3.30;3.00;;;36.70;99.90;;;;;;6098511;23;20081;-91
2021/12/31 10:52:40;;;;;;;3.75;2.95;;;35.20;99.90;;;;;;6123433;23;20010;-91
2021/12/31 10:55:23;;;;;;;3.05;2.70;;;36.10;99.90;;;;;;6098764;23;20349;-91
2021/12/31 10:57:52;;;;;;;4.05;3.15;;;36.40;99.90;;;;;;6123636;23;20002;-91
2021/12/31 11:00:20;;;;;;;3.55;3.10;;;37.20;99.90;;;;;;6124486;23;20010;-91
2021/12/31 11:02:46;;;;;;;6.00;2.58;;;35.90;99.90;;;;;;6124242;23;20013;-92
2021/12/31 11:05:15;;;;;;;4.00;3.60;;;36.20;99.90;;;;;;6123386;23;20034;-92
2021/12/31 11:07:41;;;;;;;3.38;3.08;;;35.70;99.90;;;;;;6124567;23;19998;-88
2021/12/31 11:10:08;;;;;;;5.47;3.88;;;35.50;99.90;;;;;;6122997;23;20017;-87
2021/12/31 11:12:34;;;;;;;3.95;3.58;;;35.50;99.90;;;;;;6122535;23;20014;-87
2021/12/31 11:15:01;;;;;;;4.28;3.42;;;36.00;99.90;;;;;;6126036;23;20010;-87
2021/12/31 11:17:27;;;;;;;4.03;3.60;;;35.20;99.90;;;;;;6123190;23;20006;-88
2021/12/31 11:19:53;;;;;;;3.78;3.47;;;36.20;99.90;;;;;;6124311;23;20004;-84
2021/12/31 11:22:25;;;;;;;4.18;3.78;;;34.80;99.90;;;;;;6098596;23;20006;-86
2021/12/31 11:24:51;;;;;;;4.35;3.50;;;34.20;99.90;;;;;;6125930;23;20080;-86
2021/12/31 11:27:29;;;;;;;3.60;3.25;;;33.90;99.90;;;;;;6125831;23;20037;-87
2021/12/31 11:29:56;;;;;;;3.63;3.33;;;34.50;99.90;;;;;;6126428;23;20010;-88
2021/12/31 11:32:58;;;;;;;4.07;3.60;;;34.50;99.90;;;;;;6126427;23;20006;-88
2021/12/31 11:35:35;;;;;;;4.10;3.70;;;35.70;99.90;;;;;;6125958;23;20010;-87
2021/12/31 11:38:04;;;;;;;4.32;3.20;;;35.90;99.90;;;;;;6126290;23;20045;-85
2021/12/31 11:40:29;;;;;;;3.60;3.28;;;35.70;99.90;;;;;;6125729;23;20132;-86
2021/12/31 11:43:24;;;;;;;3.83;3.53;;;35.20;99.90;;;;;;6099909;23;20002;-86
2021/12/31 11:46:09;;;;;;;3.72;3.42;;;33.10;99.90;;;;;;6126297;23;20432;-88
2021/12/31 11:48:43;;;;;;;3.70;3.40;;;35.50;99.90;;;;;;6126988;23;20010;-89
2021/12/31 11:51:10;;;;;;;4.80;3.42;;;36.10;99.90;;;;;;6125992;23;19998;-87
2021/12/31 11:54:00;;;;;;;4.45;3.78;;;36.20;99.90;;;;;;6126221;23;20009;-88
2021/12/31 11:56:45;;;;;;;4.28;3.88;;;36.80;99.90;;;;;;6099467;23;20318;-87
2021/12/31 11:59:14;;;;;;;3.30;3.00;;;36.50;99.90;;;;;;6125413;23;20010;-88
2021/12/31 12:01:40;;;;;;;4.30;3.13;;;36.50;99.90;;;;;;6125870;23;20009;-87
2021/12/31 12:04:19;;;;;;;3.75;3.33;;;36.50;99.90;;;;;;6126122;23;20013;-88
2021/12/31 12:06:59;;;;;;;3.95;3.55;;;35.90;99.90;;;;;;6126544;23;20080;-87
2021/12/31 12:09:37;;;;;;;3.72;3.28;;;36.60;99.90;;;;;;6126821;23;20013;-87
2021/12/31 12:12:03;;;;;;;4.30;3.40;;;36.40;99.90;;;;;;6125531;23;20006;-87
2021/12/31 12:14:29;;;;;;;4.18;3.78;;;36.40;99.90;;;;;;6125847;23;20037;-88
2021/12/31 12:16:59;;;;;;;4.13;3.30;;;35.90;99.90;;;;;;6125870;23;20002;-87
2021/12/31 12:19:47;;;;;;;3.50;3.20;;;34.90;99.90;;;;;;6125560;23;20006;-87
2021/12/31 12:22:49;;;;;;;4.80;3.30;;;34.20;99.90;;;;;;6125766;23;20014;-87
2021/12/31 12:25:21;;;;;;;4.28;3.88;;;34.70;99.90;;;;;;5956637;24;20035;-87
2021/12/31 12:27:49;;;;;;;4.15;3.03;;;34.00;99.90;;;;;;5980385;23;20455;-88
2021/12/31 12:30:16;;;;;;;3.13;2.83;;;34.40;99.90;;;;;;5979783;24;20008;-88
2021/12/31 12:35:23;;;;;;;3.22;2.53;;;33.40;99.90;;;;;;5979756;24;20027;-87
2021/12/31 12:38:00;;;;;;;4.88;2.78;;;32.90;99.90;;;;;;5980524;23;20008;-87
2021/12/31 12:40:40;;;;;;;3.20;2.70;;;33.20;99.90;;;;;;5957435;23;20004;-88
2021/12/31 12:43:13;;;;;;;2.60;2.40;;;34.00;99.90;;;;;;5980696;24;20455;-88
2021/12/31 12:45:43;;;;;;;2.58;2.38;;;33.90;99.90;;;;;;5979765;24;20320;-88
2021/12/31 12:48:09;;;;;;;2.80;2.53;;;34.50;99.90;;;;;;5979862;24;20630;-88
2021/12/31 12:50:36;;;;;;;2.63;2.40;;;34.50;99.90;;;;;;5980170;24;20123;-88
2021/12/31 12:53:02;;;;;;;2.58;2.38;;;33.70;99.90;;;;;;5980230;24;20024;-88
2021/12/31 12:55:29;;;;;;;2.60;2.10;;;32.90;99.90;;;;;;5980270;24;20071;-87
2021/12/31 12:57:58;;;;;;;4.38;2.10;;;32.50;99.90;;;;;;5979806;23;20019;-87
2021/12/31 13:00:35;;;;;;;4.32;2.58;;;32.00;99.90;;;;;;5979503;23;20035;-87
2021/12/31 13:03:10;;;;;;;2.92;2.38;;;32.20;99.90;;;;;;6121165;23;20475;-88
2021/12/31 13:05:37;;;;;;;3.20;2.20;;;32.30;99.90;;;;;;6126876;23;20002;-88
2021/12/31 13:08:05;;;;;;;3.20;2.90;;;32.60;99.90;;;;;;6124899;23;20010;-87